Time;durP1;ratioP1;P1;durP2;ratioP2;P2;SDS_P1;SDS_P2;PMS_P1;PMS_P2;Temp;Humidity;BMP_temperature;BMP_pressure;BME280_temperature;BME280_humidity;BME280_pressure;Samples;Min_cycle;Max_cycle;Signal;HPM_P1;HPM_P2
2022/05/17 00:01:51;;;;;;;3.22;2.40;;;19.90;53.00;;;;;;5009618;28;20026;-67
2022/05/17 00:04:16;;;;;;;4.93;2.30;;;19.90;53.00;;;;;;5008645;28;20034;-67
2022/05/17 00:06:42;;;;;;;4.97;2.17;;;19.90;53.20;;;;;;5008318;28;20030;-67
2022/05/17 00:09:07;;;;;;;5.97;3.08;;;19.90;53.30;;;;;;4993379;28;20493;-66
2022/05/17 00:11:33;;;;;;;7.88;3.15;;;19.90;53.40;;;;;;4995914;28;20026;-66
2022/05/17 00:13:59;;;;;;;7.13;2.15;;;19.80;53.30;;;;;;4995328;28;20045;-65
2022/05/17 00:16:25;;;;;;;3.45;2.10;;;19.90;53.30;;;;;;4996068;28;20030;-66
2022/05/17 00:18:51;;;;;;;5.50;2.15;;;19.80;53.50;;;;;;4995199;28;20032;-66
2022/05/17 00:21:17;;;;;;;4.85;2.47;;;19.80;53.60;;;;;;4999543;28;20092;-66
2022/05/17 00:23:43;;;;;;;6.72;2.33;;;19.80;53.60;;;;;;4995480;28;20030;-66
2022/05/17 00:26:09;;;;;;;6.82;2.40;;;19.80;53.60;;;;;;5005597;28;20026;-66
2022/05/17 00:28:35;;;;;;;4.03;2.30;;;19.80;53.60;;;;;;5014928;28;20036;-66
2022/05/17 00:31:01;;;;;;;5.53;2.72;;;19.80;54.30;;;;;;5008856;28;20381;-66
2022/05/17 00:33:27;;;;;;;4.95;2.10;;;19.80;53.70;;;;;;5013996;28;20112;-67
2022/05/17 00:35:53;;;;;;;4.95;2.28;;;19.80;54.10;;;;;;5012461;28;20038;-66
2022/05/17 00:38:19;;;;;;;5.97;2.40;;;19.70;54.50;;;;;;5014710;28;20025;-66
2022/05/17 00:40:45;;;;;;;6.97;2.47;;;19.80;55.50;;;;;;5012890;28;20095;-67
2022/05/17 00:43:14;;;;;;;4.68;2.20;;;19.70;56.00;;;;;;5013433;28;20032;-66
2022/05/17 00:45:46;;;;;;;5.65;2.75;;;19.70;56.60;;;;;;5011545;28;20048;-67
2022/05/17 00:48:13;;;;;;;4.18;2.50;;;19.60;57.00;;;;;;5015133;28;20030;-67
2022/05/17 00:50:41;;;;;;;4.13;2.47;;;19.50;57.40;;;;;;5012276;28;20505;-66
2022/05/17 00:53:08;;;;;;;5.13;2.53;;;19.50;58.20;;;;;;5013037;28;20121;-66
2022/05/17 00:55:47;;;;;;;4.63;2.38;;;19.50;58.30;;;;;;5007714;28;20122;-66
2022/05/17 00:58:15;;;;;;;4.63;2.50;;;19.40;58.50;;;;;;4977624;28;20058;-66
2022/05/17 01:00:55;;;;;;;5.07;2.25;;;19.40;58.80;;;;;;5011621;28;20033;-66
2022/05/17 01:03:23;;;;;;;3.92;2.78;;;19.30;59.10;;;;;;5014340;28;20037;-66
2022/05/17 01:05:53;;;;;;;4.25;2.40;;;19.30;59.30;;;;;;5008679;28;20579;-66
2022/05/17 01:08:20;;;;;;;4.15;2.42;;;19.30;59.60;;;;;;4994460;28;20038;-66
2022/05/17 01:10:45;;;;;;;4.00;2.17;;;19.30;60.00;;;;;;5000911;28;20129;-66
2022/05/17 01:15:57;;;;;;;6.05;2.53;;;19.20;59.90;;;;;;5007170;28;20057;-65
2022/05/17 01:18:24;;;;;;;4.90;2.65;;;19.10;59.90;;;;;;4994690;28;20023;-65
2022/05/17 01:20:50;;;;;;;5.28;2.60;;;19.10;60.40;;;;;;4993686;28;20030;-65
2022/05/17 01:23:16;;;;;;;5.80;2.55;;;19.10;60.80;;;;;;4993140;28;20026;-66
2022/05/17 01:25:41;;;;;;;4.88;2.33;;;19.10;60.80;;;;;;5000814;28;20496;-66
2022/05/17 01:28:17;;;;;;;4.47;2.22;;;19.00;61.00;;;;;;5014143;28;20431;-66
2022/05/17 01:30:43;;;;;;;4.72;2.70;;;19.00;61.20;;;;;;5011022;28;20040;-66
2022/05/17 01:33:14;;;;;;;4.85;2.50;;;19.00;61.30;;;;;;5005886;28;20021;-66
2022/05/17 01:35:40;;;;;;;4.47;2.10;;;19.00;61.30;;;;;;5011052;28;20042;-66
2022/05/17 01:38:06;;;;;;;4.63;2.28;;;19.00;61.70;;;;;;5013712;28;20037;-66
2022/05/17 01:40:32;;;;;;;4.40;2.45;;;18.90;61.90;;;;;;5012352;28;20426;-66
2022/05/17 01:42:57;;;;;;;4.28;2.67;;;18.90;61.90;;;;;;5011940;28;20042;-66
2022/05/17 01:45:23;;;;;;;3.58;2.40;;;18.90;61.70;;;;;;5012176;28;20038;-66
2022/05/17 01:47:48;;;;;;;3.65;2.63;;;18.90;61.90;;;;;;5013554;28;20026;-66
2022/05/17 01:50:14;;;;;;;5.35;2.80;;;18.90;62.00;;;;;;5012447;28;20386;-66
2022/05/17 01:52:40;;;;;;;4.82;2.45;;;18.90;62.30;;;;;;4995320;28;20060;-65
2022/05/17 01:55:05;;;;;;;4.68;2.45;;;18.90;62.80;;;;;;4994047;28;20027;-66
2022/05/17 01:57:31;;;;;;;5.45;3.05;;;18.80;63.00;;;;;;5009309;28;20042;-67
2022/05/17 01:59:56;;;;;;;4.18;2.40;;;18.80;63.20;;;;;;5013110;28;20033;-67
2022/05/17 02:02:22;;;;;;;5.05;2.78;;;18.80;63.80;;;;;;5012312;28;20021;-67
2022/05/17 02:04:48;;;;;;;6.40;2.85;;;18.80;63.90;;;;;;5010576;28;20060;-67
2022/05/17 02:07:13;;;;;;;5.07;2.40;;;18.80;64.90;;;;;;5011523;28;20470;-67
2022/05/17 02:09:39;;;;;;;5.72;2.50;;;18.80;64.80;;;;;;5012855;28;20161;-67
2022/05/17 02:12:05;;;;;;;5.35;3.13;;;18.80;66.30;;;;;;5011401;28;20134;-67
2022/05/17 02:14:30;;;;;;;4.88;2.95;;;18.70;66.40;;;;;;5012990;28;20034;-67
2022/05/17 02:16:58;;;;;;;4.65;3.30;;;18.70;67.50;;;;;;5001820;28;20030;-66
2022/05/17 02:19:23;;;;;;;3.80;2.67;;;18.70;68.20;;;;;;4999088;28;20523;-66
2022/05/17 02:21:49;;;;;;;5.15;2.60;;;18.60;68.60;;;;;;5005173;28;20105;-67
2022/05/17 02:24:16;;;;;;;4.72;2.95;;;18.60;69.50;;;;;;5012855;28;20021;-66
2022/05/17 02:26:42;;;;;;;7.00;2.65;;;18.50;69.40;;;;;;5001020;28;20466;-67
2022/05/17 02:29:08;;;;;;;7.40;3.45;;;18.50;70.60;;;;;;4993191;28;20134;-67
2022/05/17 02:31:34;;;;;;;4.15;2.88;;;18.50;71.70;;;;;;5001266;28;20053;-65
2022/05/17 02:34:00;;;;;;;4.65;2.58;;;18.50;72.70;;;;;;5011883;28;20113;-64
2022/05/17 02:36:25;;;;;;;6.35;3.05;;;18.40;73.20;;;;;;5007837;28;20576;-65
2022/05/17 02:38:51;;;;;;;6.18;3.13;;;18.40;73.90;;;;;;5012420;28;20022;-65
2022/05/17 02:41:20;;;;;;;5.60;3.13;;;18.40;73.20;;;;;;5010531;28;20117;-66
2022/05/17 02:43:46;;;;;;;8.75;3.83;;;18.40;72.70;;;;;;5010097;28;20029;-66
2022/05/17 02:46:12;;;;;;;7.80;3.25;;;18.30;73.10;;;;;;5011241;28;20037;-66
2022/05/17 02:48:38;;;;;;;5.75;3.30;;;18.30;73.90;;;;;;5012387;28;20026;-66
2022/05/17 02:51:21;;;;;;;6.13;3.13;;;18.30;74.70;;;;;;5007612;28;20034;-65
2022/05/17 02:53:47;;;;;;;5.15;3.47;;;18.20;72.60;;;;;;4992580;28;20114;-65
2022/05/17 02:56:12;;;;;;;6.65;3.30;;;18.20;74.20;;;;;;4998646;28;20128;-65
2022/05/17 02:58:38;;;;;;;4.47;2.80;;;18.10;72.60;;;;;;5012277;28;20022;-65
2022/05/17 03:01:05;;;;;;;8.95;3.05;;;18.10;73.10;;;;;;5009911;28;20033;-65
2022/05/17 03:03:32;;;;;;;7.07;3.28;;;18.10;74.30;;;;;;5012173;28;20488;-65
2022/05/17 03:05:57;;;;;;;5.88;3.28;;;18.10;76.00;;;;;;5007586;28;20041;-65
2022/05/17 03:08:23;;;;;;;7.35;3.50;;;18.10;76.70;;;;;;5003838;28;20046;-65
2022/05/17 03:10:49;;;;;;;7.28;3.60;;;18.20;77.40;;;;;;5010800;28;20060;-65
2022/05/17 03:13:15;;;;;;;6.40;3.63;;;18.10;77.30;;;;;;5007457;28;20042;-65
2022/05/17 03:15:41;;;;;;;4.90;3.22;;;18.10;78.20;;;;;;4993886;28;20069;-65
2022/05/17 03:18:07;;;;;;;4.68;3.47;;;18.10;79.10;;;;;;5012181;28;20037;-65
2022/05/17 03:20:33;;;;;;;9.07;3.80;;;18.10;79.20;;;;;;5010214;28;20018;-65
2022/05/17 03:22:59;;;;;;;8.85;3.80;;;18.10;80.10;;;;;;5007613;28;20389;-65
2022/05/17 03:25:24;;;;;;;6.00;3.53;;;18.10;80.90;;;;;;4991994;28;20030;-64
2022/05/17 03:27:50;;;;;;;4.85;3.35;;;18.10;81.30;;;;;;5010860;28;20032;-66
2022/05/17 03:30:16;;;;;;;6.72;4.18;;;18.10;81.70;;;;;;5011838;28;20038;-65
2022/05/17 03:32:42;;;;;;;6.22;3.40;;;18.10;82.50;;;;;;4993050;28;20038;-64
2022/05/17 03:35:08;;;;;;;6.40;3.90;;;18.10;83.00;;;;;;4992265;28;20458;-64
2022/05/17 03:37:34;;;;;;;5.63;4.03;;;18.10;83.50;;;;;;4992766;28;20030;-65
2022/05/17 03:40:00;;;;;;;6.93;3.45;;;18.10;84.10;;;;;;4999482;28;20034;-65
2022/05/17 03:42:25;;;;;;;9.38;4.15;;;18.00;84.50;;;;;;5007184;28;20148;-64
2022/05/17 03:44:51;;;;;;;7.90;4.15;;;18.00;85.10;;;;;;5011104;28;20076;-64
2022/05/17 03:47:16;;;;;;;9.40;4.10;;;18.00;85.50;;;;;;5014466;28;20500;-65
2022/05/17 03:49:42;;;;;;;8.98;3.97;;;17.90;86.30;;;;;;5015897;28;20070;-65
2022/05/17 03:52:08;;;;;;;6.65;3.58;;;17.90;86.40;;;;;;5011413;28;20053;-65
2022/05/17 03:54:36;;;;;;;6.68;3.75;;;17.90;87.10;;;;;;5014561;28;20088;-65
2022/05/17 03:57:01;;;;;;;7.10;4.07;;;17.80;87.60;;;;;;5012984;28;20037;-65
2022/05/17 03:59:27;;;;;;;7.50;3.90;;;17.80;88.20;;;;;;5015677;28;20022;-65
2022/05/17 04:01:52;;;;;;;7.38;3.92;;;17.80;88.60;;;;;;5014344;28;20080;-65
2022/05/17 04:04:18;;;;;;;5.57;4.05;;;17.80;88.90;;;;;;5015494;28;20033;-65
2022/05/17 04:06:43;;;;;;;6.88;4.10;;;17.70;89.40;;;;;;5013594;28;20026;-64
2022/05/17 04:09:10;;;;;;;7.05;3.80;;;17.70;89.80;;;;;;5014110;28;20042;-65
2022/05/17 04:11:36;;;;;;;5.35;3.65;;;17.70;89.60;;;;;;5014201;28;20034;-64
2022/05/17 04:14:02;;;;;;;7.05;3.92;;;17.60;89.40;;;;;;5015093;28;20029;-65
2022/05/17 04:16:35;;;;;;;9.75;4.43;;;17.50;89.80;;;;;;5013984;28;20121;-65
2022/05/17 04:19:02;;;;;;;6.22;3.92;;;17.30;90.00;;;;;;5015242;28;20029;-65
2022/05/17 04:21:30;;;;;;;9.38;3.85;;;17.20;90.10;;;;;;5013050;28;20044;-65
2022/05/17 04:23:56;;;;;;;7.20;3.67;;;17.20;90.50;;;;;;5015096;28;20022;-64
2022/05/17 04:26:22;;;;;;;10.93;4.20;;;17.10;90.60;;;;;;5009819;28;20057;-65
2022/05/17 04:28:48;;;;;;;6.28;3.55;;;17.10;90.70;;;;;;4995183;28;20061;-65
2022/05/17 04:31:13;;;;;;;5.75;3.67;;;17.10;91.10;;;;;;5000849;28;20071;-65
2022/05/17 04:33:39;;;;;;;6.38;4.35;;;17.00;91.30;;;;;;5015033;28;20121;-65
2022/05/17 04:36:04;;;;;;;7.95;3.55;;;17.00;91.50;;;;;;5013008;28;20026;-65
2022/05/17 04:38:30;;;;;;;7.45;3.83;;;17.00;91.60;;;;;;5013697;28;20034;-65
2022/05/17 04:40:55;;;;;;;6.40;4.03;;;17.00;91.50;;;;;;4999406;28;20031;-65
2022/05/17 04:43:21;;;;;;;5.28;3.55;;;16.90;91.50;;;;;;5013593;28;20026;-65
2022/05/17 04:45:46;;;;;;;7.80;4.35;;;17.00;91.70;;;;;;5012846;28;20177;-65
2022/05/17 04:48:12;;;;;;;9.38;4.18;;;16.90;91.80;;;;;;5014796;28;20055;-65
2022/05/17 04:50:38;;;;;;;8.02;4.10;;;16.90;92.10;;;;;;5009999;28;20037;-65
2022/05/17 04:53:04;;;;;;;6.43;3.58;;;16.90;92.30;;;;;;5014499;28;20152;-66
2022/05/17 04:55:30;;;;;;;6.38;3.30;;;16.90;92.50;;;;;;5010305;28;20041;-66
2022/05/17 04:57:56;;;;;;;6.65;3.85;;;16.90;92.60;;;;;;5013280;28;20112;-66
2022/05/17 05:00:24;;;;;;;7.50;4.10;;;16.90;92.60;;;;;;5012453;28;20168;-65
2022/05/17 05:02:51;;;;;;;5.82;3.63;;;16.90;92.50;;;;;;5009626;28;20109;-66
2022/05/17 05:05:22;;;;;;;5.95;3.78;;;16.90;92.50;;;;;;4994533;28;20033;-66
2022/05/17 05:07:47;;;;;;;10.18;3.80;;;16.80;92.70;;;;;;4994962;28;20113;-66
2022/05/17 05:10:13;;;;;;;5.82;3.75;;;16.80;92.70;;;;;;4994457;28;20030;-66
2022/05/17 05:12:39;;;;;;;6.40;4.15;;;16.80;92.80;;;;;;5008223;28;20036;-66
2022/05/17 05:15:05;;;;;;;6.65;4.18;;;16.80;93.10;;;;;;5013151;28;20409;-66
2022/05/17 05:17:33;;;;;;;17.85;4.32;;;16.80;93.30;;;;;;5012790;28;20037;-66
2022/05/17 05:19:59;;;;;;;7.63;4.20;;;16.80;93.40;;;;;;5013931;28;20022;-66
2022/05/17 05:22:25;;;;;;;7.93;4.40;;;16.80;93.60;;;;;;5011904;28;20064;-65
2022/05/17 05:24:52;;;;;;;8.43;4.00;;;16.80;93.70;;;;;;5013597;28;20121;-66
2022/05/17 05:27:18;;;;;;;8.85;4.50;;;16.90;93.90;;;;;;5012278;28;20052;-65
2022/05/17 05:29:43;;;;;;;7.47;4.38;;;16.90;93.90;;;;;;5013936;28;20038;-64
2022/05/17 05:32:09;;;;;;;7.43;4.28;;;16.90;94.10;;;;;;4999533;28;20026;-64
2022/05/17 05:34:35;;;;;;;7.10;4.75;;;16.80;94.20;;;;;;4993813;28;20026;-64
2022/05/17 05:37:00;;;;;;;7.78;4.53;;;16.90;94.40;;;;;;5006229;28;20566;-65
2022/05/17 05:39:26;;;;;;;6.97;4.43;;;16.90;94.50;;;;;;5010117;28;20022;-65
2022/05/17 05:41:52;;;;;;;7.00;4.35;;;16.90;94.60;;;;;;5002373;28;20395;-65
2022/05/17 05:44:18;;;;;;;8.93;4.18;;;16.90;94.70;;;;;;4993981;28;20101;-65
2022/05/17 05:46:44;;;;;;;8.40;5.05;;;16.90;94.80;;;;;;4994226;28;20461;-65
2022/05/17 05:49:10;;;;;;;6.82;5.05;;;16.90;95.00;;;;;;4994033;28;20045;-64
2022/05/17 05:51:36;;;;;;;7.35;4.63;;;16.80;95.10;;;;;;4998000;28;20117;-65
2022/05/17 05:54:02;;;;;;;9.55;5.13;;;16.90;95.20;;;;;;5013010;28;20108;-65
2022/05/17 05:56:27;;;;;;;8.02;4.57;;;16.90;95.30;;;;;;5004028;28;20533;-65
2022/05/17 05:58:53;;;;;;;7.40;4.65;;;16.80;95.30;;;;;;5008017;28;20037;-66
2022/05/17 06:01:18;;;;;;;9.05;4.70;;;16.80;95.50;;;;;;5012162;28;20112;-65
2022/05/17 06:03:44;;;;;;;7.40;5.13;;;16.90;95.60;;;;;;5011800;28;20113;-65
2022/05/17 06:06:09;;;;;;;10.60;5.50;;;16.90;95.70;;;;;;5006365;28;20028;-66
2022/05/17 06:08:36;;;;;;;9.88;5.82;;;16.90;95.60;;;;;;4992848;28;20050;-66
2022/05/17 06:11:01;;;;;;;7.10;4.78;;;16.80;95.60;;;;;;4994064;28;20724;-66
2022/05/17 06:13:27;;;;;;;9.02;5.30;;;16.80;95.70;;;;;;4992034;28;20060;-65
2022/05/17 06:15:53;;;;;;;9.85;5.75;;;16.80;95.70;;;;;;4995270;28;20041;-66
2022/05/17 06:18:18;;;;;;;9.40;5.00;;;16.80;96.00;;;;;;4996344;28;20026;-66
2022/05/17 06:20:50;;;;;;;10.00;6.00;;;16.70;96.00;;;;;;5010719;28;20044;-66
2022/05/17 06:23:15;;;;;;;9.18;5.05;;;16.70;96.00;;;;;;4999315;28;20026;-67
2022/05/17 06:25:41;;;;;;;10.95;5.97;;;16.70;96.10;;;;;;5010214;28;20444;-64
2022/05/17 06:28:06;;;;;;;8.98;5.25;;;16.70;96.10;;;;;;5013404;28;20025;-63
2022/05/17 06:30:32;;;;;;;9.98;5.00;;;16.70;96.10;;;;;;5003630;28;20022;-64
2022/05/17 06:32:57;;;;;;;9.43;5.18;;;16.70;96.00;;;;;;5010793;28;20036;-64
2022/05/17 06:35:23;;;;;;;9.00;4.93;;;16.70;96.00;;;;;;5010675;28;20157;-63
2022/05/17 06:37:48;;;;;;;8.73;5.40;;;16.70;96.00;;;;;;5011922;28;20036;-62
2022/05/17 06:40:14;;;;;;;7.75;4.78;;;16.70;96.10;;;;;;5021674;28;20052;-63
2022/05/17 06:42:39;;;;;;;7.00;5.10;;;16.70;95.80;;;;;;4998271;28;20022;-62
2022/05/17 06:45:06;;;;;;;9.45;5.82;;;16.70;96.10;;;;;;5005373;28;20022;-63
2022/05/17 06:47:31;;;;;;;7.72;4.97;;;16.80;96.00;;;;;;5010167;28;20057;-63
2022/05/17 06:49:57;;;;;;;11.25;4.97;;;16.70;95.70;;;;;;5001824;28;20105;-62
2022/05/17 06:52:23;;;;;;;10.75;4.72;;;16.70;95.80;;;;;;5006988;28;20030;-64
2022/05/17 06:54:49;;;;;;;10.95;5.22;;;16.70;95.70;;;;;;5011763;28;20425;-63
2022/05/17 06:57:15;;;;;;;10.55;5.03;;;16.70;95.60;;;;;;5009265;28;20034;-63
2022/05/17 06:59:43;;;;;;;8.50;5.05;;;16.70;95.50;;;;;;5011498;28;20141;-63
2022/05/17 07:02:08;;;;;;;9.60;4.80;;;16.80;95.50;;;;;;5004713;28;20026;-63
2022/05/17 07:04:35;;;;;;;8.00;4.85;;;16.70;95.20;;;;;;5010323;28;20023;-63
2022/05/17 07:07:00;;;;;;;7.93;4.85;;;16.80;95.60;;;;;;5002843;28;20033;-63
2022/05/17 07:09:28;;;;;;;10.05;5.05;;;16.80;95.60;;;;;;5016901;28;20050;-63
2022/05/17 07:14:39;;;;;;;10.27;5.10;;;17.00;95.60;;;;;;4999125;28;20149;-63
2022/05/17 07:17:06;;;;;;;7.53;4.68;;;17.10;96.00;;;;;;5008113;28;20477;-63
2022/05/17 07:19:33;;;;;;;9.77;4.97;;;17.20;96.30;;;;;;5018164;28;20105;-64
2022/05/17 07:22:00;;;;;;;11.30;5.07;;;17.30;96.40;;;;;;4997900;28;20045;-63
2022/05/17 07:24:25;;;;;;;8.57;5.32;;;17.50;96.50;;;;;;5007825;28;20129;-64
2022/05/17 07:26:51;;;;;;;9.98;5.15;;;17.60;96.60;;;;;;5008978;28;20030;-63
2022/05/17 07:29:16;;;;;;;11.65;6.05;;;17.70;96.40;;;;;;5014403;28;20385;-63
2022/05/17 07:31:42;;;;;;;8.27;4.85;;;17.80;96.20;;;;;;5008911;28;20025;-64
2022/05/17 07:34:07;;;;;;;9.07;5.18;;;17.90;95.90;;;;;;5012863;28;20637;-63
2022/05/17 07:36:33;;;;;;;8.82;5.78;;;18.10;95.90;;;;;;4997276;28;20113;-64
2022/05/17 07:38:59;;;;;;;8.73;5.70;;;18.20;95.60;;;;;;5009567;28;20674;-64
2022/05/17 07:41:24;;;;;;;10.45;5.63;;;18.30;95.20;;;;;;5008777;28;20036;-64
2022/05/17 07:43:50;;;;;;;8.80;5.40;;;18.50;95.60;;;;;;4998343;28;20023;-64
2022/05/17 07:46:15;;;;;;;8.35;5.18;;;18.60;94.90;;;;;;4998205;28;20034;-63
2022/05/17 07:48:41;;;;;;;8.25;5.15;;;18.70;95.00;;;;;;5019691;28;20577;-64
2022/05/17 07:51:06;;;;;;;10.25;5.75;;;18.90;95.10;;;;;;5016812;28;20022;-63
2022/05/17 07:53:32;;;;;;;10.77;6.38;;;19.20;95.20;;;;;;5016760;28;20377;-64
2022/05/17 07:55:57;;;;;;;9.75;5.72;;;19.30;95.20;;;;;;5011080;28;20066;-63
2022/05/17 07:58:24;;;;;;;12.20;6.13;;;19.40;95.00;;;;;;5019274;28;20021;-63
2022/05/17 08:00:50;;;;;;;9.65;5.53;;;19.50;94.80;;;;;;5003734;28;20026;-64
2022/05/17 08:03:16;;;;;;;8.20;6.18;;;19.70;94.50;;;;;;5006578;28;20071;-63
2022/05/17 08:05:43;;;;;;;8.43;6.13;;;19.70;94.20;;;;;;5008677;28;20512;-63
2022/05/17 08:08:08;;;;;;;13.52;5.78;;;19.70;93.80;;;;;;5012456;28;20041;-65
2022/05/17 08:10:34;;;;;;;10.48;6.28;;;19.80;93.80;;;;;;5014568;28;20385;-64
2022/05/17 08:13:00;;;;;;;9.45;6.05;;;19.90;93.70;;;;;;5013999;28;20101;-64
2022/05/17 08:15:27;;;;;;;11.85;6.80;;;19.90;93.70;;;;;;5009838;28;20474;-63
2022/05/17 08:17:53;;;;;;;9.20;5.90;;;19.90;93.10;;;;;;5016198;28;20065;-64
2022/05/17 08:20:18;;;;;;;12.57;6.22;;;20.00;93.50;;;;;;5006467;28;20192;-65
2022/05/17 08:22:45;;;;;;;11.50;5.93;;;20.10;93.80;;;;;;5010692;28;20168;-65
2022/05/17 08:27:59;;;;;;;9.23;6.22;;;20.30;93.90;;;;;;5016325;28;20415;-64
2022/05/17 08:30:26;;;;;;;10.52;6.85;;;20.40;93.90;;;;;;5017128;28;20030;-64
2022/05/17 08:36:01;;;;;;;12.55;7.38;;;20.60;93.90;;;;;;5012424;28;20041;-64
2022/05/17 08:38:33;;;;;;;11.02;6.13;;;20.70;93.90;;;;;;5026673;28;20346;-64
2022/05/17 08:41:30;;;;;;;11.30;6.57;;;20.80;93.20;;;;;;5010875;28;20022;-63
2022/05/17 08:44:02;;;;;;;11.55;5.95;;;20.90;92.60;;;;;;4994925;28;20413;-63
2022/05/17 08:46:52;;;;;;;11.25;5.53;;;20.90;92.70;;;;;;5013561;28;20037;-63
2022/05/17 08:49:22;;;;;;;10.48;6.07;;;21.00;92.40;;;;;;5027291;28;20580;-64
2022/05/17 08:51:58;;;;;;;9.88;6.28;;;21.10;92.60;;;;;;5006155;28;20041;-63
2022/05/17 08:54:28;;;;;;;10.13;6.10;;;21.20;92.60;;;;;;4994997;28;20501;-63
2022/05/17 08:57:04;;;;;;;10.73;5.88;;;21.30;92.20;;;;;;5012004;28;20046;-65
2022/05/17 08:59:35;;;;;;;9.07;5.13;;;21.40;91.70;;;;;;5026172;28;20498;-64
2022/05/17 09:02:10;;;;;;;9.15;5.85;;;21.50;91.10;;;;;;5010554;28;20038;-64
2022/05/17 09:04:45;;;;;;;;;;;21.50;90.90;;;;;;5013665;28;20465;-65
2022/05/17 09:07:31;;;;;;;7.10;5.20;;;21.60;91.20;;;;;;5015224;28;19992;-65
2022/05/17 09:10:24;;;;;;;9.80;6.03;;;21.60;91.30;;;;;;5019395;28;20651;-65
2022/05/17 09:13:04;;;;;;;10.48;5.65;;;21.70;91.00;;;;;;5018052;28;20401;-65
2022/05/17 09:15:30;;;;;;;7.65;5.82;;;21.80;91.00;;;;;;5006672;28;20482;-64
2022/05/17 09:17:59;;;;;;;8.05;5.20;;;21.80;90.40;;;;;;5016394;28;20113;-65
2022/05/17 09:20:31;;;;;;;7.95;5.93;;;21.90;90.20;;;;;;5020934;28;20156;-64
2022/05/17 09:22:56;;;;;;;7.72;5.38;;;21.90;89.80;;;;;;5017136;28;20037;-64
2022/05/17 09:25:42;;;;;;;8.73;5.40;;;21.90;89.70;;;;;;5012807;28;20026;-65
2022/05/17 09:28:09;;;;;;;12.18;6.22;;;21.90;90.10;;;;;;5021304;28;20079;-65
2022/05/17 09:30:37;;;;;;;7.07;5.70;;;22.00;89.70;;;;;;5027946;28;20512;-65
2022/05/17 09:33:06;;;;;;;12.40;6.45;;;22.00;90.10;;;;;;5004602;28;20030;-65
2022/05/17 09:35:40;;;;;;;8.98;6.38;;;22.10;90.10;;;;;;5019592;28;20025;-64
2022/05/17 09:38:07;;;;;;;14.32;7.53;;;22.20;90.30;;;;;;5007886;28;20073;-64
2022/05/17 09:40:40;;;;;;;10.55;6.85;;;22.30;90.30;;;;;;5016641;28;20037;-64
2022/05/17 09:43:09;;;;;;;8.90;6.03;;;22.40;90.50;;;;;;5007118;28;20500;-64
2022/05/17 09:45:46;;;;;;;8.63;5.72;;;22.50;89.90;;;;;;5010220;28;20025;-64
2022/05/17 09:48:25;;;;;;;7.07;5.07;;;22.60;88.30;;;;;;5012622;28;20512;-64
2022/05/17 09:53:48;;;;;;;9.20;5.40;;;22.80;87.50;;;;;;5022019;28;20048;-64
2022/05/17 09:56:16;;;;;;;8.20;4.97;;;22.90;86.70;;;;;;5018020;28;20184;-64
2022/05/17 09:58:43;;;;;;;10.90;5.68;;;22.80;85.40;;;;;;5000139;28;20034;-65
2022/05/17 10:01:19;;;;;;;7.45;4.97;;;22.90;86.20;;;;;;4995539;28;20057;-64
2022/05/17 10:03:58;;;;;;;7.93;6.25;;;22.90;86.50;;;;;;5012463;28;20123;-64
2022/05/17 10:06:35;;;;;;;11.15;6.30;;;22.90;83.60;;;;;;5010761;28;20045;-64
2022/05/17 10:09:12;;;;;;;8.38;5.75;;;22.80;83.80;;;;;;5018245;28;20117;-63
2022/05/17 10:11:40;;;;;;;7.47;5.15;;;22.80;84.20;;;;;;5002182;28;20041;-64
2022/05/17 10:14:15;;;;;;;12.07;5.78;;;22.90;84.90;;;;;;5011233;28;20103;-64
2022/05/17 10:16:50;;;;;;;9.23;4.95;;;22.90;83.00;;;;;;4998576;28;20060;-64
2022/05/17 10:19:35;;;;;;;6.40;3.85;;;22.90;81.20;;;;;;5017912;28;20381;-64
2022/05/17 10:22:06;;;;;;;6.43;4.10;;;22.90;82.40;;;;;;5012366;28;20033;-64
2022/05/17 10:24:43;;;;;;;5.28;4.47;;;23.00;82.00;;;;;;5010056;28;20526;-64
2022/05/17 10:27:18;;;;;;;7.28;4.55;;;23.00;82.10;;;;;;5007148;28;20067;-63
2022/05/17 10:29:52;;;;;;;8.35;4.65;;;23.10;81.40;;;;;;4992738;28;20033;-64
2022/05/17 10:32:29;;;;;;;6.53;3.97;;;23.20;80.30;;;;;;4999887;28;20037;-64
2022/05/17 10:35:02;;;;;;;6.80;3.85;;;23.20;81.20;;;;;;5012569;28;20296;-63
2022/05/17 10:37:38;;;;;;;6.05;4.40;;;23.30;80.10;;;;;;5009835;28;20050;-64
2022/05/17 10:40:13;;;;;;;7.03;5.15;;;23.40;80.10;;;;;;5012008;28;20117;-64
2022/05/17 10:42:41;;;;;;;7.32;4.25;;;23.40;80.20;;;;;;5012664;28;20112;-63
2022/05/17 10:45:10;;;;;;;7.47;4.32;;;23.50;79.10;;;;;;5022577;28;20041;-63
2022/05/17 10:47:55;;;;;;;9.85;4.63;;;23.40;79.20;;;;;;5015417;28;20025;-65
2022/05/17 10:50:34;;;;;;;5.53;3.95;;;23.50;79.10;;;;;;4991174;28;20389;-64
2022/05/17 10:53:17;;;;;;;7.10;3.85;;;23.40;78.30;;;;;;5006499;28;20034;-64
2022/05/17 10:56:09;;;;;;;6.45;3.85;;;23.40;77.70;;;;;;5015931;28;20054;-65
2022/05/17 10:59:13;;;;;;;7.20;4.85;;;23.40;78.00;;;;;;5010275;28;20044;-64
2022/05/17 11:01:50;;;;;;;6.53;4.00;;;23.40;77.10;;;;;;5001365;28;20033;-64
2022/05/17 11:04:57;;;;;;;6.50;4.50;;;23.40;77.90;;;;;;5000380;28;20045;-64
2022/05/17 11:07:45;;;;;;;5.55;3.90;;;23.40;77.50;;;;;;5006411;28;20034;-64
2022/05/17 11:10:33;;;;;;;7.80;4.78;;;23.40;76.90;;;;;;5021046;28;20033;-64
2022/05/17 11:13:07;;;;;;;6.15;3.92;;;23.30;77.20;;;;;;5000987;28;20037;-64
2022/05/17 11:15:38;;;;;;;5.88;3.63;;;23.30;76.50;;;;;;5016208;28;20069;-64
2022/05/17 11:18:25;;;;;;;6.50;4.00;;;23.30;75.70;;;;;;4996776;28;20497;-64
2022/05/17 11:20:56;;;;;;;7.68;5.00;;;23.30;77.10;;;;;;5016882;28;20030;-64
2022/05/17 11:23:36;;;;;;;7.50;4.57;;;23.40;77.50;;;;;;5000782;28;20034;-64
2022/05/17 11:26:40;;;;;;;6.18;3.95;;;23.40;77.30;;;;;;4998175;28;20030;-64
2022/05/17 11:29:26;;;;;;;6.97;4.28;;;23.50;77.50;;;;;;5001545;28;20053;-64
2022/05/17 11:32:00;;;;;;;11.13;4.38;;;23.50;77.00;;;;;;5012353;28;20065;-64
2022/05/17 11:34:31;;;;;;;;;;;23.60;77.60;;;;;;5005003;28;20066;-64
2022/05/17 11:37:04;;;;;;;8.20;3.70;;;23.80;77.70;;;;;;5011843;28;19925;-64
2022/05/17 11:39:37;;;;;;;7.32;4.70;;;23.90;77.50;;;;;;5008512;28;20062;-64
2022/05/17 11:42:11;;;;;;;8.50;4.13;;;24.00;77.80;;;;;;5015446;28;20092;-64
2022/05/17 11:44:43;;;;;;;7.40;3.83;;;24.10;77.60;;;;;;5015896;28;20075;-64
2022/05/17 11:47:32;;;;;;;8.45;4.05;;;24.10;76.90;;;;;;5002423;28;20073;-64
2022/05/17 11:50:16;;;;;;;7.30;4.40;;;24.20;76.90;;;;;;5015386;28;20524;-64
2022/05/17 11:52:43;;;;;;;7.63;4.90;;;24.30;76.70;;;;;;5010753;28;20045;-64
2022/05/17 11:55:12;;;;;;;9.50;5.13;;;24.40;76.60;;;;;;5018888;28;20489;-65
2022/05/17 11:57:38;;;;;;;8.40;4.65;;;24.40;76.50;;;;;;5010756;28;20044;-65
2022/05/17 12:00:07;;;;;;;5.97;4.28;;;24.40;76.90;;;;;;5016441;28;20029;-65
2022/05/17 12:02:48;;;;;;;6.45;4.75;;;24.50;76.80;;;;;;4994278;28;20045;-65
2022/05/17 12:05:42;;;;;;;9.05;4.45;;;24.50;76.10;;;;;;5016468;28;20084;-64
2022/05/17 12:08:27;;;;;;;8.70;4.13;;;24.50;76.80;;;;;;5024985;28;20093;-64
2022/05/17 12:11:07;;;;;;;9.00;4.28;;;24.60;76.90;;;;;;5021304;28;20064;-64
2022/05/17 12:13:53;;;;;;;7.32;4.95;;;24.60;75.50;;;;;;5015416;28;20028;-64
2022/05/17 12:16:23;;;;;;;5.70;4.15;;;24.60;74.60;;;;;;5018200;28;20038;-64
2022/05/17 12:18:54;;;;;;;10.27;4.40;;;24.60;74.90;;;;;;5011657;28;20037;-64
2022/05/17 12:21:46;;;;;;;8.20;4.07;;;24.70;75.10;;;;;;5016561;28;20089;-65
2022/05/17 12:24:50;;;;;;;6.45;3.35;;;24.70;75.00;;;;;;5001734;28;20139;-64
2022/05/17 12:27:26;;;;;;;6.63;3.42;;;24.80;73.30;;;;;;5004293;28;20030;-65
2022/05/17 12:33:17;;;;;;;8.05;3.90;;;25.10;73.20;;;;;;4995004;28;20161;-64
2022/05/17 12:35:44;;;;;;;6.60;3.72;;;25.30;71.00;;;;;;5016653;28;20046;-64
2022/05/17 12:43:44;;;;;;;6.47;4.18;;;25.50;69.90;;;;;;5013468;28;20015;-65
2022/05/17 12:46:31;;;;;;;8.02;3.90;;;25.60;68.20;;;;;;5015651;28;20485;-65
2022/05/17 12:49:17;;;;;;;5.53;3.63;;;25.70;68.20;;;;;;5013681;28;20029;-65
2022/05/17 12:51:54;;;;;;;5.78;3.42;;;25.70;68.30;;;;;;5003049;28;20091;-65
2022/05/17 12:54:27;;;;;;;8.13;3.60;;;25.80;68.70;;;;;;5013508;28;20041;-65
2022/05/17 12:56:53;;;;;;;15.50;5.22;;;25.80;69.30;;;;;;5019417;28;20038;-65
2022/05/17 12:59:32;;;;;;;5.82;3.47;;;25.90;69.20;;;;;;5014182;28;20492;-65
2022/05/17 13:02:01;;;;;;;5.93;3.90;;;25.90;68.70;;;;;;5018437;28;20049;-65
2022/05/17 13:04:31;;;;;;;7.57;3.85;;;25.90;66.60;;;;;;5015473;28;20022;-65
2022/05/17 13:07:15;;;;;;;7.70;4.13;;;25.90;66.80;;;;;;5016293;28;20052;-64
2022/05/17 13:10:04;;;;;;;7.03;4.15;;;25.90;66.20;;;;;;5018879;28;20057;-64
2022/05/17 13:12:42;;;;;;;7.32;4.38;;;25.90;66.20;;;;;;5000130;28;20035;-64
2022/05/17 13:15:11;;;;;;;7.45;4.03;;;25.80;66.20;;;;;;5024034;28;20061;-64
2022/05/17 13:17:39;;;;;;;4.97;3.17;;;25.80;65.60;;;;;;5008211;28;20061;-64
2022/05/17 13:20:21;;;;;;;7.18;3.63;;;25.80;67.00;;;;;;5008944;28;20117;-64
2022/05/17 13:22:51;;;;;;;6.25;3.53;;;25.60;65.70;;;;;;5000087;28;20197;-64